createdAt,value
2022-08-06T00:00:06.652Z,63.61
2022-08-06T00:02:35.152Z,63.52
2022-08-06T00:05:06.010Z,61.50
2022-08-06T00:07:44.558Z,61.88
2022-08-06T00:10:13.657Z,60.10
2022-08-06T00:12:41.054Z,59.97
2022-08-06T00:15:13.505Z,61.88
2022-08-06T00:17:43.634Z,60.19
2022-08-06T00:20:11.453Z,60.73
2022-08-06T00:22:38.387Z,60.85
2022-08-06T00:25:08.894Z,60.73
2022-08-06T00:27:38.998Z,59.71
2022-08-06T00:30:18.595Z,60.22
2022-08-06T00:32:51.843Z,60.52
2022-08-06T00:35:21.661Z,60.35
2022-08-06T00:37:54.983Z,60.46
2022-08-06T00:40:26.010Z,61.10
2022-08-06T00:42:56.828Z,61.14
2022-08-06T00:45:25.553Z,60.56
2022-08-06T00:48:02.291Z,61.19
2022-08-06T00:50:31.641Z,60.69
2022-08-06T00:52:59.799Z,61.33
2022-08-06T00:55:32.021Z,60.91
2022-08-06T00:58:03.820Z,60.52
2022-08-06T01:00:31.160Z,59.79
2022-08-06T01:03:04.090Z,60.43
2022-08-06T01:06:03.959Z,59.33
2022-08-06T01:08:17.625Z,59.89
2022-08-06T01:10:45.020Z,58.55
2022-08-06T01:13:22.913Z,57.59
2022-08-06T01:16:30.147Z,56.71
2022-08-06T01:19:01.163Z,57.14
2022-08-06T01:22:00.914Z,56.89
2022-08-06T01:24:51.835Z,56.72
2022-08-06T01:27:43.123Z,55.67
2022-08-06T01:30:25.249Z,55.46
2022-08-06T01:33:04.498Z,55.30
2022-08-06T01:35:47.056Z,56.07
2022-08-06T01:38:44.940Z,55.60
2022-08-06T01:41:58.355Z,56.38
2022-08-06T01:44:29.523Z,55.19
2022-08-06T01:47:01.019Z,55.54
2022-08-06T01:50:00.107Z,55.90
2022-08-06T01:52:30.058Z,55.84
2022-08-06T01:54:59.945Z,56.23
2022-08-06T01:57:32.905Z,55.54
2022-08-06T02:00:16.188Z,55.20
2022-08-06T02:02:44.789Z,56.41
2022-08-06T02:05:14.199Z,57.53
2022-08-06T02:08:37.770Z,58.26
2022-08-06T02:10:34.421Z,58.34
2022-08-06T02:13:03.902Z,58.80
2022-08-06T02:15:45.400Z,59.31
2022-08-06T02:18:35.005Z,59.31
2022-08-06T02:21:18.464Z,59.95
2022-08-06T02:23:48.249Z,59.86
2022-08-06T02:26:18.353Z,60.20
2022-08-06T02:28:50.317Z,60.44
2022-08-06T02:31:17.957Z,61.76
2022-08-06T02:34:02.458Z,61.80
2022-08-06T02:36:50.436Z,61.78
2022-08-06T02:39:29.802Z,60.63
2022-08-06T02:42:15.051Z,60.59
2022-08-06T02:45:03.648Z,59.94
2022-08-06T02:47:55.929Z,60.28
2022-08-06T02:50:38.327Z,58.96
2022-08-06T02:53:24.251Z,59.18
2022-08-06T02:55:57.272Z,58.72
2022-08-06T02:58:45.321Z,58.32
2022-08-06T03:01:29.415Z,58.71
2022-08-06T03:04:08.070Z,58.22
2022-08-06T03:06:37.300Z,57.90
2022-08-06T03:09:07.595Z,58.21
2022-08-06T03:11:38.645Z,57.99
2022-08-06T03:14:13.331Z,57.69
2022-08-06T03:16:58.663Z,57.40
2022-08-06T03:19:57.603Z,58.40
2022-08-06T03:22:34.617Z,58.47
2022-08-06T03:25:03.764Z,57.69
2022-08-06T03:27:43.601Z,57.91
2022-08-06T03:30:32.184Z,59.92
2022-08-06T03:33:28.493Z,58.86
2022-08-06T03:36:00.612Z,62.00
2022-08-06T03:38:29.770Z,64.84
2022-08-06T03:41:01.126Z,65.87
2022-08-06T03:43:56.169Z,66.39
2022-08-06T03:46:21.211Z,66.56
2022-08-06T03:48:51.278Z,66.65
2022-08-06T03:51:29.709Z,66.53
2022-08-06T03:54:09.813Z,66.02
2022-08-06T03:56:46.557Z,66.23
2022-08-06T03:59:19.648Z,67.74
2022-08-06T04:01:50.793Z,67.80
2022-08-06T04:04:25.989Z,66.26
2022-08-06T04:06:56.192Z,64.32
2022-08-06T04:09:57.701Z,63.24
2022-08-06T04:12:42.763Z,62.45
2022-08-06T04:15:00.735Z,62.93
2022-08-06T04:17:32.954Z,61.70
2022-08-06T04:20:01.576Z,61.43
2022-08-06T04:23:00.258Z,60.50
2022-08-06T04:25:16.803Z,60.08
2022-08-06T04:27:53.168Z,60.54
2022-08-06T04:30:25.366Z,60.08
2022-08-06T04:33:00.199Z,60.03
2022-08-06T04:36:04.545Z,59.65
2022-08-06T04:38:28.244Z,59.04
2022-08-06T04:40:57.775Z,59.19
2022-08-06T04:43:38.439Z,59.41
2022-08-06T04:46:16.256Z,59.27
2022-08-06T04:48:47.054Z,59.51
2022-08-06T04:51:17.386Z,59.73
2022-08-06T04:54:04.502Z,59.77
2022-08-06T04:56:37.185Z,60.26
2022-08-06T04:59:05.808Z,59.99
2022-08-06T05:01:40.818Z,60.44
2022-08-06T05:04:22.781Z,59.84
2022-08-06T05:06:56.823Z,59.82
2022-08-06T05:09:42.792Z,59.58
2022-08-06T05:12:33.890Z,59.59
2022-08-06T05:15:08.858Z,59.92
2022-08-06T05:17:41.555Z,59.75
2022-08-06T05:20:27.600Z,58.94
2022-08-06T05:23:09.036Z,59.06
2022-08-06T05:25:48.137Z,59.26
2022-08-06T05:28:22.859Z,59.97
2022-08-06T05:30:55.547Z,59.40
2022-08-06T05:33:26.632Z,58.90
2022-08-06T05:36:01.640Z,59.05
2022-08-06T05:38:32.100Z,57.94
2022-08-06T05:41:03.579Z,58.56
2022-08-06T05:43:58.769Z,57.85
2022-08-06T05:46:25.021Z,57.62
2022-08-06T05:48:55.186Z,57.92
2022-08-06T05:51:43.671Z,57.85
2022-08-06T05:54:38.578Z,58.20
2022-08-06T05:57:33.542Z,57.51
2022-08-06T06:00:41.837Z,57.59
2022-08-06T06:03:01.859Z,56.83
2022-08-06T06:06:07.296Z,57.35
2022-08-06T06:08:29.566Z,56.74
2022-08-06T06:11:06.239Z,56.95
2022-08-06T06:13:57.946Z,56.43
2022-08-06T06:16:32.365Z,56.25
2022-08-06T06:19:21.673Z,56.13
2022-08-06T06:22:17.310Z,55.82
2022-08-06T06:24:53.870Z,55.97
2022-08-06T06:27:42.524Z,56.16
2022-08-06T06:30:33.090Z,56.98
2022-08-06T06:33:36.550Z,56.83
2022-08-06T06:36:17.522Z,56.60
2022-08-06T06:38:47.419Z,55.59
2022-08-06T06:41:53.323Z,56.61
2022-08-06T06:45:03.607Z,57.77
2022-08-06T06:47:46.493Z,56.35
2022-08-06T06:50:36.314Z,56.17
2022-08-06T06:53:03.394Z,55.10
2022-08-06T06:55:56.926Z,56.19
2022-08-06T06:58:47.320Z,56.61
2022-08-06T07:01:28.648Z,56.74
2022-08-06T07:03:58.056Z,56.98
2022-08-06T07:06:30.818Z,57.25
2022-08-06T07:09:00.371Z,57.09
2022-08-06T07:12:01.617Z,56.25
2022-08-06T07:14:33.689Z,55.40
2022-08-06T07:17:01.771Z,55.71
2022-08-06T07:19:50.511Z,57.99
2022-08-06T07:22:19.240Z,58.56
2022-08-06T07:24:47.266Z,57.45
2022-08-06T07:27:16.525Z,59.10
2022-08-06T07:29:59.637Z,60.12
2022-08-06T07:32:32.087Z,61.24
2022-08-06T07:35:12.119Z,59.42
2022-08-06T07:37:50.154Z,57.98
2022-08-06T07:40:28.605Z,57.18
2022-08-06T07:43:24.779Z,57.62
2022-08-06T07:45:54.915Z,58.10
2022-08-06T07:48:28.878Z,58.09
2022-08-06T07:51:01.096Z,57.38
2022-08-06T07:53:40.925Z,57.56
2022-08-06T07:56:16.598Z,55.87
2022-08-06T07:58:45.951Z,55.40
2022-08-06T08:01:17.183Z,55.39
2022-08-06T08:04:30.121Z,54.63
2022-08-06T08:06:56.462Z,54.75
2022-08-06T08:09:29.509Z,54.00
2022-08-06T08:12:25.626Z,53.79
2022-08-06T08:15:03.346Z,53.27
2022-08-06T08:17:35.486Z,52.85
2022-08-06T08:20:15.446Z,53.72
2022-08-06T08:22:48.437Z,53.42
2022-08-06T08:25:21.421Z,53.05
2022-08-06T08:28:12.758Z,52.81
2022-08-06T08:30:44.492Z,52.38
2022-08-06T08:33:18.432Z,52.25
2022-08-06T08:35:49.826Z,52.02
2022-08-06T08:38:29.396Z,51.73
2022-08-06T08:40:57.566Z,52.59
2022-08-06T08:43:58.814Z,52.94
2022-08-06T08:46:18.963Z,53.67
2022-08-06T08:49:01.416Z,53.21
2022-08-06T08:51:28.751Z,53.32
2022-08-06T08:53:58.539Z,52.72
2022-08-06T08:57:07.938Z,52.60
2022-08-06T08:59:57.794Z,52.03
2022-08-06T09:02:01.156Z,51.64
2022-08-06T09:04:29.131Z,52.23
2022-08-06T09:06:57.248Z,53.04
2022-08-06T09:09:30.310Z,52.99
2022-08-06T09:12:05.353Z,53.81
2022-08-06T09:14:47.526Z,53.53
2022-08-06T09:17:14.632Z,53.81
2022-08-06T09:19:45.586Z,54.91
2022-08-06T09:22:12.555Z,55.63
2022-08-06T09:24:40.296Z,55.16
2022-08-06T09:27:46.899Z,55.33
2022-08-06T09:30:25.305Z,55.16
2022-08-06T09:32:57.895Z,55.82
2022-08-06T09:35:42.783Z,56.06
2022-08-06T09:38:10.930Z,56.21
2022-08-06T09:40:37.694Z,55.95
2022-08-06T09:43:10.106Z,55.51
2022-08-06T09:45:45.708Z,55.15
2022-08-06T09:48:17.783Z,55.83
2022-08-06T09:50:51.069Z,55.82
2022-08-06T09:53:21.680Z,55.32
2022-08-06T09:55:58.551Z,55.92
2022-08-06T09:58:37.676Z,55.24
2022-08-06T10:01:21.112Z,54.97
2022-08-06T10:04:02.470Z,55.18
2022-08-06T10:06:39.854Z,56.46
2022-08-06T10:09:20.923Z,56.75
2022-08-06T10:12:00.149Z,56.33
2022-08-06T10:14:32.034Z,57.01
2022-08-06T10:17:11.671Z,57.35
2022-08-06T10:19:51.986Z,57.13
2022-08-06T10:22:27.012Z,57.23
2022-08-06T10:24:57.147Z,57.66
2022-08-06T10:27:35.880Z,57.44
2022-08-06T10:30:07.198Z,58.23
2022-08-06T10:32:46.723Z,58.02
2022-08-06T10:35:25.318Z,57.61
2022-08-06T10:38:14.812Z,57.48
2022-08-06T10:40:57.416Z,56.17
2022-08-06T10:43:30.092Z,56.78
2022-08-06T10:46:02.607Z,56.74
2022-08-06T10:50:22.634Z,56.59
2022-08-06T10:51:56.714Z,55.74
2022-08-06T10:54:19.695Z,55.87
2022-08-06T10:56:49.401Z,56.19
2022-08-06T10:59:19.077Z,57.11
2022-08-06T11:02:23.481Z,58.25
2022-08-06T11:05:17.962Z,57.79
2022-08-06T11:08:41.144Z,57.80
2022-08-06T11:11:42.265Z,57.50
2022-08-06T11:14:14.752Z,57.90
2022-08-06T11:17:00.077Z,58.00
2022-08-06T11:19:57.556Z,57.91
2022-08-06T11:22:38.889Z,58.19
2022-08-06T11:25:26.345Z,58.40
2022-08-06T11:28:02.848Z,58.75
2022-08-06T11:30:54.460Z,58.87
2022-08-06T11:33:43.759Z,58.66
2022-08-06T11:36:24.513Z,59.21
2022-08-06T11:38:59.306Z,58.12
2022-08-06T11:41:54.233Z,58.70
2022-08-06T11:44:35.818Z,59.15
2022-08-06T11:47:22.940Z,57.87
2022-08-06T11:50:04.333Z,59.27
2022-08-06T11:52:41.188Z,58.27
2022-08-06T11:55:12.961Z,58.59
2022-08-06T11:58:10.872Z,58.57
2022-08-06T12:00:56.377Z,57.93
2022-08-06T12:03:45.054Z,59.70
2022-08-06T12:06:29.399Z,58.71
2022-08-06T12:09:35.924Z,58.15
2022-08-06T12:12:26.617Z,59.73
2022-08-06T12:14:55.002Z,58.76
2022-08-06T12:17:44.756Z,59.48
2022-08-06T12:20:13.319Z,59.85
2022-08-06T12:23:00.910Z,61.45
2022-08-06T12:25:32.419Z,60.76
2022-08-06T12:27:59.211Z,60.94
2022-08-06T12:30:35.934Z,60.52
2022-08-06T12:33:04.325Z,60.94
2022-08-06T12:35:57.877Z,61.54
2022-08-06T12:38:27.607Z,63.48
2022-08-06T12:41:09.533Z,62.51
2022-08-06T12:43:56.562Z,62.39
2022-08-06T12:46:29.761Z,62.11
2022-08-06T12:49:01.562Z,62.81
2022-08-06T12:51:30.400Z,62.89
2022-08-06T12:54:02.263Z,62.11
2022-08-06T12:56:32.959Z,62.77
2022-08-06T12:59:05.833Z,62.03
2022-08-06T13:02:07.318Z,62.09
2022-08-06T13:04:30.211Z,62.71
2022-08-06T13:06:59.479Z,61.78
2022-08-06T13:09:35.891Z,61.21
2022-08-06T13:12:19.755Z,61.72
2022-08-06T13:15:02.742Z,61.78
2022-08-06T13:18:01.779Z,60.63
2022-08-06T13:20:43.982Z,61.32
2022-08-06T13:23:22.476Z,61.61
2022-08-06T13:25:54.447Z,62.06
2022-08-06T13:28:38.387Z,62.34
2022-08-06T13:31:23.845Z,62.90
2022-08-06T13:34:14.792Z,62.37
2022-08-06T13:36:50.047Z,61.34
2022-08-06T13:39:33.923Z,60.66
2022-08-06T13:42:14.316Z,62.33
2022-08-06T13:44:45.102Z,60.89
2022-08-06T13:47:35.844Z,60.13
2022-08-06T13:50:06.303Z,59.78
2022-08-06T13:52:35.185Z,60.65
2022-08-06T13:55:02.127Z,60.82
2022-08-06T13:57:36.582Z,60.75
2022-08-06T14:00:11.198Z,60.29
2022-08-06T14:02:39.219Z,60.98
2022-08-06T14:05:19.979Z,61.34
2022-08-06T14:07:50.715Z,60.76
2022-08-06T14:10:18.597Z,60.71
2022-08-06T14:13:12.771Z,60.69
2022-08-06T14:15:44.549Z,60.38
2022-08-06T14:18:11.830Z,59.70
2022-08-06T14:20:42.041Z,60.66
2022-08-06T14:23:08.895Z,60.78
2022-08-06T14:26:00.282Z,60.26
2022-08-06T14:28:22.798Z,60.37
2022-08-06T14:30:52.098Z,61.21
2022-08-06T14:33:26.346Z,60.36
2022-08-06T14:35:53.707Z,60.11
2022-08-06T14:38:21.728Z,60.56
2022-08-06T14:41:17.094Z,60.77
2022-08-06T14:44:02.418Z,60.53
2022-08-06T14:46:31.970Z,60.65
2022-08-06T14:49:05.847Z,60.45
2022-08-06T14:52:19.999Z,61.24
2022-08-06T14:54:31.694Z,60.90
2022-08-06T14:57:14.663Z,60.00
2022-08-06T14:59:48.505Z,59.56
2022-08-06T15:02:20.800Z,60.44
2022-08-06T15:04:52.189Z,59.96
2022-08-06T15:07:25.594Z,61.37
2022-08-06T15:10:27.629Z,60.94
2022-08-06T15:13:01.001Z,61.50
2022-08-06T15:15:36.527Z,61.93
2022-08-06T15:18:25.212Z,62.49
2022-08-06T15:21:00.617Z,63.02
2022-08-06T15:23:44.834Z,62.60
2022-08-06T15:26:47.269Z,63.11
2022-08-06T15:29:04.575Z,62.85
2022-08-06T15:31:37.564Z,63.20
2022-08-06T15:34:07.017Z,63.22
2022-08-06T15:36:36.178Z,62.50
2022-08-06T15:39:09.321Z,63.39
2022-08-06T15:41:42.843Z,62.59
2022-08-06T15:44:10.335Z,62.82
2022-08-06T15:46:41.661Z,63.22
2022-08-06T15:49:13.051Z,62.91
2022-08-06T15:52:00.840Z,63.17
2022-08-06T15:54:28.421Z,61.62
2022-08-06T15:56:55.067Z,61.93
2022-08-06T15:59:21.743Z,62.47
2022-08-06T16:01:52.421Z,62.02
2022-08-06T16:04:32.488Z,62.02
2022-08-06T16:07:07.275Z,62.32
2022-08-06T16:09:56.077Z,61.85
2022-08-06T16:12:23.503Z,62.22
2022-08-06T16:14:57.145Z,61.10
2022-08-06T16:17:53.330Z,61.01
2022-08-06T16:20:20.907Z,60.12
2022-08-06T16:22:53.000Z,59.70
2022-08-06T16:25:22.812Z,59.59
2022-08-06T16:27:51.828Z,59.15
2022-08-06T16:30:19.576Z,58.79
2022-08-06T16:32:46.276Z,59.14
2022-08-06T16:35:17.632Z,58.68
2022-08-06T16:37:51.916Z,59.10
2022-08-06T16:40:21.724Z,58.33
2022-08-06T16:42:49.315Z,60.06
2022-08-06T16:45:16.689Z,60.67
2022-08-06T16:50:36.376Z,60.64
2022-08-06T16:54:08.784Z,61.13
2022-08-06T16:55:55.608Z,60.46
2022-08-06T17:02:15.151Z,59.69
2022-08-06T17:04:00.031Z,60.01
2022-08-06T17:12:04.073Z,59.26
2022-08-06T17:14:33.824Z,59.69
2022-08-06T17:17:06.702Z,59.32
2022-08-06T17:19:34.304Z,58.64
2022-08-06T17:22:04.008Z,59.31
2022-08-06T17:24:37.738Z,60.05
2022-08-06T17:27:10.554Z,59.56
2022-08-06T17:29:45.747Z,59.63
2022-08-06T17:32:30.174Z,60.46
2022-08-06T17:35:10.867Z,60.72
2022-08-06T17:37:44.318Z,59.73
2022-08-06T17:40:19.229Z,60.17
2022-08-06T17:43:04.725Z,59.80
2022-08-06T17:45:51.735Z,60.66
2022-08-06T17:48:24.799Z,59.55
2022-08-06T17:50:52.126Z,59.73
2022-08-06T17:53:21.468Z,61.16
2022-08-06T17:55:59.689Z,61.00
2022-08-06T17:58:34.557Z,60.51
2022-08-06T18:01:10.145Z,60.15
2022-08-06T18:03:50.606Z,59.79
2022-08-06T18:06:18.807Z,59.98
2022-08-06T18:08:50.838Z,60.01
2022-08-06T18:11:19.566Z,60.02
2022-08-06T18:13:52.775Z,60.23
2022-08-06T18:16:26.557Z,60.14
2022-08-06T18:18:57.406Z,59.82
2022-08-06T18:21:25.547Z,60.53
2022-08-06T18:23:56.204Z,59.92
2022-08-06T18:26:30.793Z,59.37
2022-08-06T18:28:59.958Z,58.90
2022-08-06T18:31:59.197Z,59.13
2022-08-06T18:34:16.203Z,59.00
2022-08-06T18:36:45.478Z,58.55
2022-08-06T18:39:15.000Z,59.28
2022-08-06T18:41:56.877Z,58.90
2022-08-06T18:44:27.248Z,58.44
2022-08-06T18:46:55.498Z,58.73
2022-08-06T18:49:32.215Z,59.00
2022-08-06T18:52:06.083Z,58.58
2022-08-06T18:54:56.562Z,58.61
2022-08-06T18:57:37.991Z,58.68
2022-08-06T19:00:18.315Z,58.65
2022-08-06T19:02:45.313Z,58.64
2022-08-06T19:05:15.566Z,58.32
2022-08-06T19:07:49.806Z,58.76
2022-08-06T19:10:19.011Z,58.38
2022-08-06T19:12:48.274Z,58.85
2022-08-06T19:15:19.639Z,58.83
2022-08-06T19:18:13.422Z,58.65
2022-08-06T19:20:38.183Z,58.68
2022-08-06T19:23:06.413Z,58.74
2022-08-06T19:25:52.736Z,58.97
2022-08-06T19:28:34.814Z,59.08
2022-08-06T19:31:11.349Z,59.20
2022-08-06T19:33:38.324Z,58.93
2022-08-06T19:36:26.983Z,60.09
2022-08-06T19:38:53.855Z,59.91
2022-08-06T19:41:55.099Z,62.28
2022-08-06T19:44:25.760Z,62.12
2022-08-06T19:46:57.337Z,61.90
2022-08-06T19:49:24.538Z,60.25
2022-08-06T19:52:04.091Z,60.60
2022-08-06T19:54:36.446Z,60.21
2022-08-06T19:57:08.442Z,60.41
2022-08-06T20:00:51.075Z,60.18
2022-08-06T20:02:26.263Z,61.10
2022-08-06T20:04:55.770Z,60.70
2022-08-06T20:07:25.769Z,60.05
2022-08-06T20:09:59.891Z,61.34
2022-08-06T20:12:33.866Z,60.54
2022-08-06T20:15:28.473Z,59.46
2022-08-06T20:17:55.419Z,59.29
2022-08-06T20:20:28.958Z,59.95
2022-08-06T20:23:00.139Z,59.60
2022-08-06T20:25:27.314Z,59.19
2022-08-06T20:29:07.351Z,59.65
2022-08-06T20:30:49.394Z,59.27
2022-08-06T20:33:24.328Z,58.99
2022-08-06T20:35:57.278Z,58.84
2022-08-06T20:38:33.263Z,59.60
2022-08-06T20:41:57.612Z,58.53
2022-08-06T20:44:06.243Z,58.10
2022-08-06T20:49:29.049Z,58.32
2022-08-06T20:52:10.950Z,58.34
2022-08-06T20:54:51.269Z,58.80
2022-08-06T20:57:25.600Z,58.40
2022-08-06T20:59:54.101Z,58.60
2022-08-06T21:02:25.993Z,58.73
2022-08-06T21:05:15.159Z,58.29
2022-08-06T21:07:57.563Z,58.29
2022-08-06T21:10:30.553Z,58.83
2022-08-06T21:13:06.206Z,58.56
2022-08-06T21:15:54.468Z,58.13
2022-08-06T21:18:21.900Z,59.06
2022-08-06T21:20:51.674Z,58.92
2022-08-06T21:23:26.298Z,60.35
2022-08-06T21:26:15.058Z,59.63
2022-08-06T21:28:54.183Z,59.48
2022-08-06T21:31:24.025Z,59.58
2022-08-06T21:33:54.219Z,58.91
2022-08-06T21:36:25.807Z,58.83
2022-08-06T21:38:55.275Z,59.04
2022-08-06T21:41:42.227Z,58.30
2022-08-06T21:44:17.359Z,57.69
2022-08-06T21:46:50.319Z,58.03
2022-08-06T21:49:58.084Z,58.18
2022-08-06T21:52:11.880Z,58.24
2022-08-06T21:54:43.352Z,58.70
2022-08-06T21:57:12.316Z,58.38
2022-08-06T21:59:46.207Z,58.31
2022-08-06T22:02:21.622Z,58.38
2022-08-06T22:04:59.103Z,59.78
2022-08-06T22:07:33.610Z,59.50
2022-08-06T22:10:13.417Z,60.15
2022-08-06T22:13:11.873Z,60.39
2022-08-06T22:15:34.157Z,59.94
2022-08-06T22:18:16.869Z,59.68
2022-08-06T22:20:45.978Z,60.30
2022-08-06T22:23:17.280Z,60.39
2022-08-06T22:25:45.231Z,60.24
2022-08-06T22:28:23.845Z,60.25
2022-08-06T22:31:01.335Z,59.83
2022-08-06T22:33:45.442Z,61.24
2022-08-06T22:36:18.126Z,60.08
2022-08-06T22:39:01.582Z,59.48
2022-08-06T22:41:42.351Z,59.87
2022-08-06T22:44:14.950Z,59.70
2022-08-06T22:46:57.898Z,60.02
2022-08-06T22:49:24.951Z,59.72
2022-08-06T22:51:51.838Z,60.09
2022-08-06T22:54:29.893Z,59.74
2022-08-06T22:57:06.064Z,59.00
2022-08-06T23:00:07.003Z,59.07
2022-08-06T23:02:22.051Z,59.45
2022-08-06T23:04:49.594Z,59.20
2022-08-06T23:07:24.302Z,58.99
2022-08-06T23:09:54.278Z,59.30
2022-08-06T23:12:31.450Z,59.45
2022-08-06T23:15:19.908Z,60.13
2022-08-06T23:17:56.055Z,59.69
2022-08-06T23:20:26.214Z,60.28
2022-08-06T23:22:59.713Z,59.71
2022-08-06T23:26:00.966Z,59.69
2022-08-06T23:28:13.166Z,60.41
2022-08-06T23:30:41.882Z,60.50
2022-08-06T23:33:08.567Z,60.88
2022-08-06T23:35:38.023Z,61.46
2022-08-06T23:38:31.747Z,61.33
2022-08-06T23:40:55.065Z,60.71
2022-08-06T23:43:22.993Z,60.76
2022-08-06T23:45:50.210Z,60.52
2022-08-06T23:48:17.382Z,60.88
2022-08-06T23:50:53.080Z,61.57
2022-08-06T23:54:08.565Z,61.55
2022-08-06T23:56:16.662Z,61.20
2022-08-06T23:58:48.930Z,61.23
